sensor_id;sensor_type;location;lat;lon;timestamp;P1;durP1;ratioP1;P2;durP2;ratioP2
53263;SDS011;39153;52.680;6.172;2023-02-19T00:01:22;55.55;;;21.85;;
53263;SDS011;39153;52.680;6.172;2023-02-19T00:03:51;48.53;;;19.48;;
53263;SDS011;39153;52.680;6.172;2023-02-19T00:06:19;49.70;;;19.45;;
53263;SDS011;39153;52.680;6.172;2023-02-19T00:08:45;47.30;;;17.52;;
53263;SDS011;39153;52.680;6.172;2023-02-19T00:11:12;43.90;;;17.50;;
53263;SDS011;39153;52.680;6.172;2023-02-19T00:13:40;48.80;;;18.08;;
53263;SDS011;39153;52.680;6.172;2023-02-19T00:16:08;46.53;;;17.60;;
53263;SDS011;39153;52.680;6.172;2023-02-19T00:18:37;53.83;;;16.13;;
53263;SDS011;39153;52.680;6.172;2023-02-19T00:21:03;48.72;;;16.65;;
53263;SDS011;39153;52.680;6.172;2023-02-19T00:23:28;46.55;;;15.40;;
53263;SDS011;39153;52.680;6.172;2023-02-19T00:25:54;44.38;;;15.73;;
53263;SDS011;39153;52.680;6.172;2023-02-19T00:28:20;51.35;;;14.95;;
53263;SDS011;39153;52.680;6.172;2023-02-19T00:30:46;42.92;;;13.77;;
53263;SDS011;39153;52.680;6.172;2023-02-19T00:33:12;42.45;;;13.10;;
53263;SDS011;39153;52.680;6.172;2023-02-19T00:35:39;36.97;;;12.07;;
53263;SDS011;39153;52.680;6.172;2023-02-19T00:38:05;40.38;;;12.20;;
53263;SDS011;39153;52.680;6.172;2023-02-19T00:40:30;38.97;;;12.23;;
53263;SDS011;39153;52.680;6.172;2023-02-19T00:42:56;36.22;;;11.30;;
53263;SDS011;39153;52.680;6.172;2023-02-19T00:45:22;34.65;;;10.93;;
53263;SDS011;39153;52.680;6.172;2023-02-19T00:47:47;33.80;;;10.98;;
53263;SDS011;39153;52.680;6.172;2023-02-19T00:50:13;33.72;;;10.65;;
53263;SDS011;39153;52.680;6.172;2023-02-19T00:52:39;38.58;;;12.05;;
53263;SDS011;39153;52.680;6.172;2023-02-19T00:55:05;36.33;;;11.63;;
53263;SDS011;39153;52.680;6.172;2023-02-19T00:57:31;35.17;;;11.02;;
53263;SDS011;39153;52.680;6.172;2023-02-19T00:59:56;30.65;;;10.18;;
53263;SDS011;39153;52.680;6.172;2023-02-19T01:02:22;37.08;;;10.00;;
53263;SDS011;39153;52.680;6.172;2023-02-19T01:04:48;29.88;;;9.55;;
53263;SDS011;39153;52.680;6.172;2023-02-19T01:07:13;29.45;;;8.40;;
53263;SDS011;39153;52.680;6.172;2023-02-19T01:09:39;26.83;;;9.60;;
53263;SDS011;39153;52.680;6.172;2023-02-19T01:12:05;28.85;;;9.23;;
53263;SDS011;39153;52.680;6.172;2023-02-19T01:14:31;27.83;;;8.98;;
53263;SDS011;39153;52.680;6.172;2023-02-19T01:16:57;28.63;;;9.20;;
53263;SDS011;39153;52.680;6.172;2023-02-19T01:19:22;30.45;;;9.02;;
53263;SDS011;39153;52.680;6.172;2023-02-19T01:21:48;30.23;;;9.48;;
53263;SDS011;39153;52.680;6.172;2023-02-19T01:24:14;23.48;;;9.15;;
53263;SDS011;39153;52.680;6.172;2023-02-19T01:26:41;26.40;;;9.25;;
53263;SDS011;39153;52.680;6.172;2023-02-19T01:29:07;27.88;;;8.65;;
53263;SDS011;39153;52.680;6.172;2023-02-19T01:31:33;25.73;;;8.68;;
53263;SDS011;39153;52.680;6.172;2023-02-19T01:34:01;28.77;;;8.52;;
53263;SDS011;39153;52.680;6.172;2023-02-19T01:36:28;25.58;;;8.00;;
53263;SDS011;39153;52.680;6.172;2023-02-19T01:38:58;24.02;;;8.07;;
53263;SDS011;39153;52.680;6.172;2023-02-19T01:41:27;27.10;;;7.82;;
53263;SDS011;39153;52.680;6.172;2023-02-19T01:43:58;21.60;;;6.78;;
53263;SDS011;39153;52.680;6.172;2023-02-19T01:46:32;21.88;;;6.32;;
53263;SDS011;39153;52.680;6.172;2023-02-19T01:49:07;17.60;;;6.80;;
53263;SDS011;39153;52.680;6.172;2023-02-19T01:51:40;19.67;;;6.97;;
53263;SDS011;39153;52.680;6.172;2023-02-19T01:54:14;22.33;;;7.10;;
53263;SDS011;39153;52.680;6.172;2023-02-19T01:56:42;21.90;;;6.57;;
53263;SDS011;39153;52.680;6.172;2023-02-19T01:59:09;19.45;;;7.28;;
53263;SDS011;39153;52.680;6.172;2023-02-19T02:01:36;17.85;;;6.68;;
53263;SDS011;39153;52.680;6.172;2023-02-19T02:04:03;17.30;;;6.20;;
53263;SDS011;39153;52.680;6.172;2023-02-19T02:06:33;19.83;;;7.13;;
53263;SDS011;39153;52.680;6.172;2023-02-19T02:09:03;13.93;;;5.60;;
53263;SDS011;39153;52.680;6.172;2023-02-19T02:11:48;14.38;;;5.35;;
53263;SDS011;39153;52.680;6.172;2023-02-19T02:14:16;12.77;;;5.90;;
53263;SDS011;39153;52.680;6.172;2023-02-19T02:16:58;12.00;;;5.68;;
53263;SDS011;39153;52.680;6.172;2023-02-19T02:25:25;15.50;;;5.50;;
53263;SDS011;39153;52.680;6.172;2023-02-19T02:31:18;14.73;;;5.43;;
53263;SDS011;39153;52.680;6.172;2023-02-19T02:34:05;20.83;;;5.78;;
53263;SDS011;39153;52.680;6.172;2023-02-19T02:36:37;14.90;;;6.22;;
53263;SDS011;39153;52.680;6.172;2023-02-19T02:39:12;13.38;;;6.07;;
53263;SDS011;39153;52.680;6.172;2023-02-19T02:41:44;18.58;;;6.00;;
53263;SDS011;39153;52.680;6.172;2023-02-19T02:44:34;13.95;;;5.60;;
53263;SDS011;39153;52.680;6.172;2023-02-19T02:47:00;16.13;;;6.43;;
53263;SDS011;39153;52.680;6.172;2023-02-19T02:49:30;14.40;;;6.30;;
53263;SDS011;39153;52.680;6.172;2023-02-19T02:51:57;18.42;;;6.22;;
53263;SDS011;39153;52.680;6.172;2023-02-19T02:54:45;16.23;;;6.60;;
53263;SDS011;39153;52.680;6.172;2023-02-19T02:57:29;12.87;;;6.10;;
53263;SDS011;39153;52.680;6.172;2023-02-19T02:59:54;20.60;;;7.38;;
53263;SDS011;39153;52.680;6.172;2023-02-19T03:02:24;17.00;;;6.60;;
53263;SDS011;39153;52.680;6.172;2023-02-19T03:05:01;16.50;;;7.53;;
53263;SDS011;39153;52.680;6.172;2023-02-19T03:08:35;22.60;;;7.53;;
53263;SDS011;39153;52.680;6.172;2023-02-19T03:14:32;19.23;;;7.18;;
53263;SDS011;39153;52.680;6.172;2023-02-19T03:17:06;17.08;;;6.90;;
53263;SDS011;39153;52.680;6.172;2023-02-19T03:19:55;17.90;;;6.90;;
53263;SDS011;39153;52.680;6.172;2023-02-19T03:22:24;19.23;;;7.85;;
53263;SDS011;39153;52.680;6.172;2023-02-19T03:24:59;19.80;;;7.72;;
53263;SDS011;39153;52.680;6.172;2023-02-19T03:27:47;18.88;;;7.55;;
53263;SDS011;39153;52.680;6.172;2023-02-19T03:30:21;18.05;;;6.70;;
53263;SDS011;39153;52.680;6.172;2023-02-19T03:33:00;22.60;;;8.27;;
53263;SDS011;39153;52.680;6.172;2023-02-19T03:35:37;22.25;;;7.45;;
53263;SDS011;39153;52.680;6.172;2023-02-19T03:38:11;22.83;;;7.88;;
53263;SDS011;39153;52.680;6.172;2023-02-19T03:40:52;20.90;;;8.50;;
53263;SDS011;39153;52.680;6.172;2023-02-19T03:46:14;28.13;;;8.85;;
53263;SDS011;39153;52.680;6.172;2023-02-19T03:48:55;22.38;;;8.90;;
53263;SDS011;39153;52.680;6.172;2023-02-19T03:51:27;25.95;;;10.02;;
53263;SDS011;39153;52.680;6.172;2023-02-19T03:54:15;23.63;;;9.50;;
53263;SDS011;39153;52.680;6.172;2023-02-19T03:56:47;22.98;;;10.50;;
53263;SDS011;39153;52.680;6.172;2023-02-19T03:59:20;22.63;;;10.05;;
53263;SDS011;39153;52.680;6.172;2023-02-19T04:02:12;23.02;;;10.30;;
53263;SDS011;39153;52.680;6.172;2023-02-19T04:05:10;23.95;;;10.40;;
53263;SDS011;39153;52.680;6.172;2023-02-19T04:07:41;23.98;;;9.77;;
53263;SDS011;39153;52.680;6.172;2023-02-19T04:10:10;27.05;;;9.82;;
53263;SDS011;39153;52.680;6.172;2023-02-19T04:12:38;25.58;;;10.35;;
53263;SDS011;39153;52.680;6.172;2023-02-19T04:15:11;26.05;;;9.88;;
53263;SDS011;39153;52.680;6.172;2023-02-19T04:17:42;24.17;;;9.98;;
53263;SDS011;39153;52.680;6.172;2023-02-19T04:20:12;24.08;;;11.10;;
53263;SDS011;39153;52.680;6.172;2023-02-19T04:22:39;30.45;;;10.60;;
53263;SDS011;39153;52.680;6.172;2023-02-19T04:25:06;33.17;;;11.35;;
53263;SDS011;39153;52.680;6.172;2023-02-19T04:27:34;28.02;;;12.27;;
53263;SDS011;39153;52.680;6.172;2023-02-19T04:30:03;29.98;;;11.38;;
53263;SDS011;39153;52.680;6.172;2023-02-19T04:32:30;27.58;;;11.13;;
53263;SDS011;39153;52.680;6.172;2023-02-19T04:34:56;29.45;;;11.40;;
53263;SDS011;39153;52.680;6.172;2023-02-19T04:37:21;33.00;;;12.07;;
53263;SDS011;39153;52.680;6.172;2023-02-19T04:39:47;21.80;;;11.43;;
53263;SDS011;39153;52.680;6.172;2023-02-19T04:42:13;29.42;;;11.60;;
53263;SDS011;39153;52.680;6.172;2023-02-19T04:44:38;23.00;;;11.30;;
53263;SDS011;39153;52.680;6.172;2023-02-19T04:47:04;28.65;;;11.70;;
53263;SDS011;39153;52.680;6.172;2023-02-19T04:49:30;31.02;;;11.07;;
53263;SDS011;39153;52.680;6.172;2023-02-19T04:51:55;27.10;;;10.70;;
53263;SDS011;39153;52.680;6.172;2023-02-19T04:54:21;19.13;;;10.48;;
53263;SDS011;39153;52.680;6.172;2023-02-19T04:56:47;20.83;;;9.80;;
53263;SDS011;39153;52.680;6.172;2023-02-19T04:59:14;23.08;;;9.30;;
53263;SDS011;39153;52.680;6.172;2023-02-19T05:01:40;20.35;;;9.10;;
53263;SDS011;39153;52.680;6.172;2023-02-19T05:04:06;21.02;;;9.52;;
53263;SDS011;39153;52.680;6.172;2023-02-19T05:06:32;21.13;;;9.05;;
53263;SDS011;39153;52.680;6.172;2023-02-19T05:08:57;19.17;;;9.18;;
53263;SDS011;39153;52.680;6.172;2023-02-19T05:11:23;17.48;;;9.05;;
53263;SDS011;39153;52.680;6.172;2023-02-19T05:13:49;20.02;;;8.95;;
53263;SDS011;39153;52.680;6.172;2023-02-19T05:16:15;18.17;;;9.13;;
53263;SDS011;39153;52.680;6.172;2023-02-19T05:18:42;16.38;;;8.13;;
53263;SDS011;39153;52.680;6.172;2023-02-19T05:21:09;20.85;;;9.23;;
53263;SDS011;39153;52.680;6.172;2023-02-19T05:23:35;25.73;;;9.35;;
53263;SDS011;39153;52.680;6.172;2023-02-19T05:26:08;25.15;;;9.02;;
53263;SDS011;39153;52.680;6.172;2023-02-19T05:28:36;23.77;;;9.23;;
53263;SDS011;39153;52.680;6.172;2023-02-19T05:31:03;23.88;;;9.55;;
53263;SDS011;39153;52.680;6.172;2023-02-19T05:33:31;22.60;;;9.75;;
53263;SDS011;39153;52.680;6.172;2023-02-19T05:35:57;23.98;;;9.90;;
53263;SDS011;39153;52.680;6.172;2023-02-19T05:38:22;26.83;;;10.65;;
53263;SDS011;39153;52.680;6.172;2023-02-19T05:40:48;23.52;;;10.75;;
53263;SDS011;39153;52.680;6.172;2023-02-19T05:43:14;26.17;;;11.25;;
53263;SDS011;39153;52.680;6.172;2023-02-19T05:45:40;24.75;;;10.52;;
53263;SDS011;39153;52.680;6.172;2023-02-19T05:48:06;31.05;;;11.43;;
53263;SDS011;39153;52.680;6.172;2023-02-19T05:50:33;30.10;;;11.98;;
53263;SDS011;39153;52.680;6.172;2023-02-19T05:53:00;29.70;;;12.15;;
53263;SDS011;39153;52.680;6.172;2023-02-19T05:55:26;31.95;;;12.90;;
53263;SDS011;39153;52.680;6.172;2023-02-19T05:57:52;38.72;;;12.80;;
53263;SDS011;39153;52.680;6.172;2023-02-19T06:00:19;33.78;;;13.27;;
53263;SDS011;39153;52.680;6.172;2023-02-19T06:02:45;33.80;;;13.63;;
53263;SDS011;39153;52.680;6.172;2023-02-19T06:05:11;33.33;;;13.63;;
53263;SDS011;39153;52.680;6.172;2023-02-19T06:07:37;33.65;;;13.10;;
53263;SDS011;39153;52.680;6.172;2023-02-19T06:10:06;34.58;;;13.48;;
53263;SDS011;39153;52.680;6.172;2023-02-19T06:12:33;36.78;;;13.73;;
53263;SDS011;39153;52.680;6.172;2023-02-19T06:14:58;30.65;;;12.70;;
53263;SDS011;39153;52.680;6.172;2023-02-19T06:17:24;20.67;;;9.10;;
53263;SDS011;39153;52.680;6.172;2023-02-19T06:19:50;22.05;;;8.65;;
53263;SDS011;39153;52.680;6.172;2023-02-19T06:22:15;17.58;;;8.50;;
53263;SDS011;39153;52.680;6.172;2023-02-19T06:24:41;17.35;;;7.82;;
53263;SDS011;39153;52.680;6.172;2023-02-19T06:27:07;16.50;;;6.97;;
53263;SDS011;39153;52.680;6.172;2023-02-19T06:29:34;14.43;;;6.10;;
53263;SDS011;39153;52.680;6.172;2023-02-19T06:32:02;13.10;;;5.40;;
53263;SDS011;39153;52.680;6.172;2023-02-19T06:34:29;15.13;;;5.60;;
53263;SDS011;39153;52.680;6.172;2023-02-19T06:36:55;12.73;;;5.18;;
53263;SDS011;39153;52.680;6.172;2023-02-19T06:39:21;14.13;;;6.20;;
53263;SDS011;39153;52.680;6.172;2023-02-19T06:41:46;13.45;;;6.35;;
53263;SDS011;39153;52.680;6.172;2023-02-19T06:44:12;12.50;;;5.32;;
53263;SDS011;39153;52.680;6.172;2023-02-19T06:46:38;11.75;;;5.53;;
53263;SDS011;39153;52.680;6.172;2023-02-19T06:49:04;12.52;;;5.43;;
53263;SDS011;39153;52.680;6.172;2023-02-19T06:51:30;14.15;;;5.50;;
53263;SDS011;39153;52.680;6.172;2023-02-19T06:53:57;13.25;;;5.65;;
53263;SDS011;39153;52.680;6.172;2023-02-19T06:58:58;13.88;;;6.53;;
53263;SDS011;39153;52.680;6.172;2023-02-19T07:01:27;11.95;;;6.88;;
53263;SDS011;39153;52.680;6.172;2023-02-19T07:03:54;13.77;;;6.80;;
53263;SDS011;39153;52.680;6.172;2023-02-19T07:06:20;12.48;;;6.65;;
53263;SDS011;39153;52.680;6.172;2023-02-19T07:08:48;10.63;;;5.75;;
53263;SDS011;39153;52.680;6.172;2023-02-19T07:11:14;10.70;;;5.60;;
53263;SDS011;39153;52.680;6.172;2023-02-19T07:13:42;11.23;;;5.47;;
53263;SDS011;39153;52.680;6.172;2023-02-19T07:16:08;8.93;;;5.38;;
53263;SDS011;39153;52.680;6.172;2023-02-19T07:18:35;9.52;;;4.93;;
53263;SDS011;39153;52.680;6.172;2023-02-19T07:21:11;11.20;;;5.28;;
53263;SDS011;39153;52.680;6.172;2023-02-19T07:23:39;9.05;;;4.63;;
53263;SDS011;39153;52.680;6.172;2023-02-19T07:26:09;9.43;;;5.20;;
53263;SDS011;39153;52.680;6.172;2023-02-19T07:28:36;10.55;;;5.18;;
53263;SDS011;39153;52.680;6.172;2023-02-19T07:31:02;9.48;;;4.65;;
53263;SDS011;39153;52.680;6.172;2023-02-19T07:33:29;7.55;;;4.13;;
53263;SDS011;39153;52.680;6.172;2023-02-19T07:35:55;8.32;;;4.30;;
53263;SDS011;39153;52.680;6.172;2023-02-19T07:38:21;7.60;;;4.45;;
53263;SDS011;39153;52.680;6.172;2023-02-19T07:40:53;8.40;;;4.78;;
53263;SDS011;39153;52.680;6.172;2023-02-19T07:43:21;8.05;;;4.20;;
53263;SDS011;39153;52.680;6.172;2023-02-19T07:45:48;8.15;;;4.70;;
53263;SDS011;39153;52.680;6.172;2023-02-19T07:48:14;8.27;;;5.10;;
53263;SDS011;39153;52.680;6.172;2023-02-19T07:50:40;8.13;;;4.38;;
53263;SDS011;39153;52.680;6.172;2023-02-19T07:53:05;8.70;;;5.22;;
53263;SDS011;39153;52.680;6.172;2023-02-19T07:55:31;8.00;;;5.20;;
53263;SDS011;39153;52.680;6.172;2023-02-19T07:57:58;10.75;;;5.80;;
53263;SDS011;39153;52.680;6.172;2023-02-19T08:00:24;9.77;;;5.20;;
53263;SDS011;39153;52.680;6.172;2023-02-19T08:02:51;9.52;;;5.40;;
53263;SDS011;39153;52.680;6.172;2023-02-19T08:05:31;9.63;;;5.38;;
53263;SDS011;39153;52.680;6.172;2023-02-19T08:08:05;9.40;;;5.60;;
53263;SDS011;39153;52.680;6.172;2023-02-19T08:10:37;10.15;;;5.75;;
53263;SDS011;39153;52.680;6.172;2023-02-19T08:13:21;10.05;;;5.85;;
53263;SDS011;39153;52.680;6.172;2023-02-19T08:15:49;9.88;;;5.72;;
53263;SDS011;39153;52.680;6.172;2023-02-19T08:18:16;8.98;;;4.78;;
53263;SDS011;39153;52.680;6.172;2023-02-19T08:20:43;7.68;;;4.88;;
53263;SDS011;39153;52.680;6.172;2023-02-19T08:23:09;10.25;;;4.55;;
53263;SDS011;39153;52.680;6.172;2023-02-19T08:25:35;9.95;;;4.15;;
53263;SDS011;39153;52.680;6.172;2023-02-19T08:28:02;11.07;;;4.95;;
53263;SDS011;39153;52.680;6.172;2023-02-19T08:30:28;9.20;;;4.30;;
53263;SDS011;39153;52.680;6.172;2023-02-19T08:32:55;7.55;;;3.75;;
53263;SDS011;39153;52.680;6.172;2023-02-19T08:35:22;6.68;;;3.20;;
53263;SDS011;39153;52.680;6.172;2023-02-19T08:37:47;5.82;;;3.20;;
53263;SDS011;39153;52.680;6.172;2023-02-19T08:40:13;6.13;;;3.70;;
53263;SDS011;39153;52.680;6.172;2023-02-19T08:42:39;6.88;;;3.40;;
53263;SDS011;39153;52.680;6.172;2023-02-19T08:45:05;5.18;;;2.90;;
53263;SDS011;39153;52.680;6.172;2023-02-19T08:47:33;4.57;;;2.85;;
53263;SDS011;39153;52.680;6.172;2023-02-19T08:49:59;5.30;;;2.83;;
53263;SDS011;39153;52.680;6.172;2023-02-19T08:52:25;7.05;;;3.20;;
53263;SDS011;39153;52.680;6.172;2023-02-19T08:54:51;6.07;;;3.45;;
53263;SDS011;39153;52.680;6.172;2023-02-19T08:57:17;7.40;;;3.75;;
53263;SDS011;39153;52.680;6.172;2023-02-19T08:59:43;7.13;;;3.70;;
53263;SDS011;39153;52.680;6.172;2023-02-19T09:02:09;7.15;;;3.90;;
53263;SDS011;39153;52.680;6.172;2023-02-19T09:04:36;7.22;;;4.13;;
53263;SDS011;39153;52.680;6.172;2023-02-19T09:07:03;7.15;;;4.50;;
53263;SDS011;39153;52.680;6.172;2023-02-19T09:09:38;10.20;;;4.63;;
53263;SDS011;39153;52.680;6.172;2023-02-19T09:12:04;7.43;;;4.78;;
53263;SDS011;39153;52.680;6.172;2023-02-19T09:14:31;6.95;;;4.80;;
53263;SDS011;39153;52.680;6.172;2023-02-19T09:16:58;8.45;;;4.60;;
53263;SDS011;39153;52.680;6.172;2023-02-19T09:19:25;6.28;;;4.70;;
53263;SDS011;39153;52.680;6.172;2023-02-19T09:21:51;7.28;;;4.32;;
53263;SDS011;39153;52.680;6.172;2023-02-19T09:24:17;7.30;;;4.72;;
53263;SDS011;39153;52.680;6.172;2023-02-19T09:26:42;8.15;;;4.95;;
53263;SDS011;39153;52.680;6.172;2023-02-19T09:29:08;8.05;;;4.72;;
53263;SDS011;39153;52.680;6.172;2023-02-19T09:31:34;7.20;;;4.40;;
53263;SDS011;39153;52.680;6.172;2023-02-19T09:34:00;6.53;;;4.10;;
53263;SDS011;39153;52.680;6.172;2023-02-19T09:36:25;6.60;;;3.97;;
53263;SDS011;39153;52.680;6.172;2023-02-19T09:38:51;6.60;;;3.90;;
53263;SDS011;39153;52.680;6.172;2023-02-19T09:41:21;6.60;;;3.83;;
53263;SDS011;39153;52.680;6.172;2023-02-19T09:43:53;6.80;;;3.72;;
53263;SDS011;39153;52.680;6.172;2023-02-19T09:46:39;6.65;;;4.10;;
53263;SDS011;39153;52.680;6.172;2023-02-19T09:49:18;6.18;;;4.00;;
53263;SDS011;39153;52.680;6.172;2023-02-19T09:51:51;7.68;;;4.07;;
53263;SDS011;39153;52.680;6.172;2023-02-19T09:54:39;5.00;;;3.30;;
53263;SDS011;39153;52.680;6.172;2023-02-19T09:57:14;6.00;;;3.83;;
53263;SDS011;39153;52.680;6.172;2023-02-19T09:59:45;5.50;;;3.58;;
53263;SDS011;39153;52.680;6.172;2023-02-19T10:02:17;8.70;;;4.15;;
53263;SDS011;39153;52.680;6.172;2023-02-19T10:04:46;5.45;;;3.50;;
53263;SDS011;39153;52.680;6.172;2023-02-19T10:07:20;6.20;;;3.70;;
53263;SDS011;39153;52.680;6.172;2023-02-19T10:10:01;4.93;;;2.95;;
53263;SDS011;39153;52.680;6.172;2023-02-19T10:12:48;8.32;;;3.67;;
53263;SDS011;39153;52.680;6.172;2023-02-19T10:15:29;8.40;;;3.33;;
53263;SDS011;39153;52.680;6.172;2023-02-19T10:18:00;5.03;;;2.50;;
53263;SDS011;39153;52.680;6.172;2023-02-19T10:20:28;8.00;;;3.05;;
53263;SDS011;39153;52.680;6.172;2023-02-19T10:23:01;7.82;;;3.15;;
53263;SDS011;39153;52.680;6.172;2023-02-19T10:25:29;5.47;;;2.67;;
53263;SDS011;39153;52.680;6.172;2023-02-19T10:28:00;13.30;;;3.90;;
53263;SDS011;39153;52.680;6.172;2023-02-19T10:30:29;4.35;;;2.70;;
53263;SDS011;39153;52.680;6.172;2023-02-19T10:33:18;4.70;;;2.30;;
53263;SDS011;39153;52.680;6.172;2023-02-19T10:35:57;3.90;;;2.10;;
53263;SDS011;39153;52.680;6.172;2023-02-19T10:38:46;3.50;;;1.70;;
53263;SDS011;39153;52.680;6.172;2023-02-19T10:43:40;2.65;;;1.40;;
53263;SDS011;39153;52.680;6.172;2023-02-19T10:46:16;3.20;;;1.50;;
53263;SDS011;39153;52.680;6.172;2023-02-19T10:48:46;2.42;;;1.23;;
53263;SDS011;39153;52.680;6.172;2023-02-19T10:51:19;3.05;;;1.50;;
53263;SDS011;39153;52.680;6.172;2023-02-19T10:54:05;4.10;;;1.80;;
53263;SDS011;39153;52.680;6.172;2023-02-19T10:56:49;2.65;;;1.50;;
53263;SDS011;39153;52.680;6.172;2023-02-19T11:01:56;2.53;;;1.33;;
53263;SDS011;39153;52.680;6.172;2023-02-19T11:04:28;2.83;;;1.40;;
53263;SDS011;39153;52.680;6.172;2023-02-19T11:07:05;3.85;;;1.60;;
53263;SDS011;39153;52.680;6.172;2023-02-19T11:09:38;2.80;;;1.60;;
53263;SDS011;39153;52.680;6.172;2023-02-19T11:12:06;3.03;;;1.70;;
53263;SDS011;39153;52.680;6.172;2023-02-19T11:14:34;3.60;;;1.70;;
53263;SDS011;39153;52.680;6.172;2023-02-19T11:17:01;3.92;;;1.70;;
53263;SDS011;39153;52.680;6.172;2023-02-19T11:22:18;3.17;;;1.55;;
53263;SDS011;39153;52.680;6.172;2023-02-19T11:25:03;2.65;;;1.30;;
53263;SDS011;39153;52.680;6.172;2023-02-19T11:27:31;2.25;;;1.10;;
53263;SDS011;39153;52.680;6.172;2023-02-19T11:33:40;2.13;;;0.90;;
53263;SDS011;39153;52.680;6.172;2023-02-19T11:35:44;2.08;;;0.75;;
53263;SDS011;39153;52.680;6.172;2023-02-19T11:38:12;2.13;;;0.77;;
53263;SDS011;39153;52.680;6.172;2023-02-19T11:40:41;1.92;;;0.93;;
53263;SDS011;39153;52.680;6.172;2023-02-19T11:43:16;2.50;;;0.90;;
53263;SDS011;39153;52.680;6.172;2023-02-19T11:46:05;1.65;;;0.70;;
53263;SDS011;39153;52.680;6.172;2023-02-19T11:48:54;1.45;;;0.70;;
53263;SDS011;39153;52.680;6.172;2023-02-19T11:51:53;3.45;;;0.88;;
53263;SDS011;39153;52.680;6.172;2023-02-19T11:54:38;1.58;;;0.90;;
53263;SDS011;39153;52.680;6.172;2023-02-19T11:59:47;3.42;;;0.95;;
53263;SDS011;39153;52.680;6.172;2023-02-19T12:10:42;2.20;;;0.80;;
53263;SDS011;39153;52.680;6.172;2023-02-19T12:22:08;2.50;;;0.60;;
53263;SDS011;39153;52.680;6.172;2023-02-19T12:32:51;1.23;;;0.68;;
53263;SDS011;39153;52.680;6.172;2023-02-19T12:38:30;1.73;;;0.65;;
53263;SDS011;39153;52.680;6.172;2023-02-19T12:41:11;1.80;;;0.70;;
53263;SDS011;39153;52.680;6.172;2023-02-19T12:43:50;1.67;;;0.70;;
53263;SDS011;39153;52.680;6.172;2023-02-19T12:46:18;2.63;;;0.82;;
53263;SDS011;39153;52.680;6.172;2023-02-19T12:49:00;1.35;;;0.60;;
53263;SDS011;39153;52.680;6.172;2023-02-19T12:51:44;1.85;;;0.60;;
53263;SDS011;39153;52.680;6.172;2023-02-19T12:54:15;2.58;;;0.70;;
53263;SDS011;39153;52.680;6.172;2023-02-19T12:56:49;1.05;;;0.43;;
53263;SDS011;39153;52.680;6.172;2023-02-19T13:02:29;1.42;;;0.50;;
53263;SDS011;39153;52.680;6.172;2023-02-19T13:05:18;2.15;;;0.70;;
53263;SDS011;39153;52.680;6.172;2023-02-19T13:08:01;1.50;;;0.50;;
53263;SDS011;39153;52.680;6.172;2023-02-19T13:10:35;2.78;;;0.70;;
53263;SDS011;39153;52.680;6.172;2023-02-19T13:13:09;1.67;;;0.70;;
53263;SDS011;39153;52.680;6.172;2023-02-19T13:15:47;2.53;;;0.80;;
53263;SDS011;39153;52.680;6.172;2023-02-19T13:18:30;2.80;;;0.90;;
53263;SDS011;39153;52.680;6.172;2023-02-19T13:21:04;2.47;;;0.70;;
53263;SDS011;39153;52.680;6.172;2023-02-19T13:23:30;4.13;;;1.00;;
53263;SDS011;39153;52.680;6.172;2023-02-19T13:34:54;2.25;;;0.93;;
53263;SDS011;39153;52.680;6.172;2023-02-19T13:37:42;3.40;;;1.17;;
53263;SDS011;39153;52.680;6.172;2023-02-19T13:42:55;2.08;;;0.80;;
53263;SDS011;39153;52.680;6.172;2023-02-19T13:45:37;2.17;;;0.90;;
53263;SDS011;39153;52.680;6.172;2023-02-19T13:50:48;3.60;;;1.00;;
53263;SDS011;39153;52.680;6.172;2023-02-19T14:02:24;2.72;;;0.98;;
53263;SDS011;39153;52.680;6.172;2023-02-19T14:09:51;3.75;;;1.02;;
53263;SDS011;39153;52.680;6.172;2023-02-19T14:12:18;2.40;;;0.80;;
53263;SDS011;39153;52.680;6.172;2023-02-19T14:14:49;2.42;;;0.80;;
53263;SDS011;39153;52.680;6.172;2023-02-19T14:17:58;2.08;;;0.65;;
53263;SDS011;39153;52.680;6.172;2023-02-19T14:33:32;2.50;;;0.70;;
53263;SDS011;39153;52.680;6.172;2023-02-19T14:38:27;3.67;;;0.98;;
53263;SDS011;39153;52.680;6.172;2023-02-19T14:40:57;4.10;;;0.82;;
53263;SDS011;39153;52.680;6.172;2023-02-19T14:43:24;2.95;;;0.98;;
53263;SDS011;39153;52.680;6.172;2023-02-19T14:48:45;1.80;;;0.70;;
53263;SDS011;39153;52.680;6.172;2023-02-19T14:53:48;3.08;;;0.90;;
53263;SDS011;39153;52.680;6.172;2023-02-19T14:56:17;2.67;;;0.90;;
53263;SDS011;39153;52.680;6.172;2023-02-19T14:58:47;4.22;;;1.15;;
53263;SDS011;39153;52.680;6.172;2023-02-19T15:01:30;3.83;;;0.60;;
53263;SDS011;39153;52.680;6.172;2023-02-19T15:03:56;1.85;;;0.57;;
53263;SDS011;39153;52.680;6.172;2023-02-19T15:06:22;2.17;;;0.65;;
53263;SDS011;39153;52.680;6.172;2023-02-19T15:08:52;2.28;;;0.60;;
53263;SDS011;39153;52.680;6.172;2023-02-19T15:11:24;2.40;;;0.65;;
53263;SDS011;39153;52.680;6.172;2023-02-19T15:13:56;4.50;;;0.90;;
53263;SDS011;39153;52.680;6.172;2023-02-19T15:16:24;4.63;;;1.00;;
53263;SDS011;39153;52.680;6.172;2023-02-19T15:18:53;3.90;;;1.20;;
53263;SDS011;39153;52.680;6.172;2023-02-19T15:23:57;7.28;;;1.20;;
53263;SDS011;39153;52.680;6.172;2023-02-19T15:26:26;2.67;;;0.95;;
53263;SDS011;39153;52.680;6.172;2023-02-19T15:28:59;4.03;;;1.38;;
53263;SDS011;39153;52.680;6.172;2023-02-19T15:31:27;2.55;;;1.00;;
53263;SDS011;39153;52.680;6.172;2023-02-19T15:33:52;3.42;;;1.00;;
53263;SDS011;39153;52.680;6.172;2023-02-19T15:36:26;3.08;;;1.00;;
53263;SDS011;39153;52.680;6.172;2023-02-19T15:38:56;3.67;;;1.50;;
53263;SDS011;39153;52.680;6.172;2023-02-19T15:41:25;4.07;;;1.48;;
53263;SDS011;39153;52.680;6.172;2023-02-19T15:43:55;3.35;;;1.17;;
53263;SDS011;39153;52.680;6.172;2023-02-19T15:46:35;3.58;;;0.90;;
53263;SDS011;39153;52.680;6.172;2023-02-19T15:49:10;3.03;;;1.20;;
53263;SDS011;39153;52.680;6.172;2023-02-19T15:51:46;4.72;;;1.10;;
53263;SDS011;39153;52.680;6.172;2023-02-19T15:57:10;3.72;;;1.25;;
53263;SDS011;39153;52.680;6.172;2023-02-19T15:59:42;3.75;;;1.40;;
53263;SDS011;39153;52.680;6.172;2023-02-19T16:02:15;4.55;;;1.05;;
53263;SDS011;39153;52.680;6.172;2023-02-19T16:04:41;2.88;;;0.80;;
53263;SDS011;39153;52.680;6.172;2023-02-19T16:07:29;4.78;;;1.15;;
53263;SDS011;39153;52.680;6.172;2023-02-19T16:10:06;3.85;;;1.17;;
53263;SDS011;39153;52.680;6.172;2023-02-19T16:12:53;4.13;;;1.05;;
53263;SDS011;39153;52.680;6.172;2023-02-19T16:15:20;3.97;;;0.90;;
53263;SDS011;39153;52.680;6.172;2023-02-19T16:17:45;4.93;;;0.98;;
53263;SDS011;39153;52.680;6.172;2023-02-19T16:20:19;6.38;;;0.90;;
53263;SDS011;39153;52.680;6.172;2023-02-19T16:22:48;3.83;;;0.98;;
53263;SDS011;39153;52.680;6.172;2023-02-19T16:25:26;5.15;;;0.77;;
53263;SDS011;39153;52.680;6.172;2023-02-19T16:28:08;4.72;;;1.05;;
53263;SDS011;39153;52.680;6.172;2023-02-19T16:30:35;3.88;;;1.10;;
53263;SDS011;39153;52.680;6.172;2023-02-19T16:33:20;4.40;;;1.00;;
53263;SDS011;39153;52.680;6.172;2023-02-19T16:35:46;3.70;;;0.90;;
53263;SDS011;39153;52.680;6.172;2023-02-19T16:38:16;3.00;;;0.77;;
53263;SDS011;39153;52.680;6.172;2023-02-19T16:45:44;3.83;;;0.82;;
53263;SDS011;39153;52.680;6.172;2023-02-19T16:48:11;5.05;;;0.93;;
53263;SDS011;39153;52.680;6.172;2023-02-19T16:50:38;4.65;;;0.95;;
53263;SDS011;39153;52.680;6.172;2023-02-19T16:53:16;4.13;;;0.80;;
53263;SDS011;39153;52.680;6.172;2023-02-19T16:55:44;4.50;;;0.80;;
53263;SDS011;39153;52.680;6.172;2023-02-19T16:58:10;5.47;;;1.00;;
53263;SDS011;39153;52.680;6.172;2023-02-19T17:00:35;7.28;;;1.00;;
53263;SDS011;39153;52.680;6.172;2023-02-19T17:03:02;5.55;;;0.90;;